createdAt,value
2022-10-25T00:02:59.622Z,0.73
2022-10-25T00:06:09.988Z,0.98
2022-10-25T00:09:21.841Z,0.70
2022-10-25T00:12:36.442Z,0.80
2022-10-25T00:15:57.226Z,0.95
2022-10-25T00:19:13.131Z,1.42
2022-10-25T00:22:26.019Z,0.90
2022-10-25T00:25:40.447Z,0.82
2022-10-25T00:29:04.321Z,1.00
2022-10-25T00:32:29.779Z,1.10
2022-10-25T00:35:34.113Z,1.08
2022-10-25T00:38:50.833Z,1.05
2022-10-25T00:42:11.584Z,0.88
2022-10-25T00:45:24.208Z,1.02
2022-10-25T00:52:04.219Z,1.00
2022-10-25T00:55:18.042Z,0.80
2022-10-25T00:58:32.995Z,1.20
2022-10-25T01:01:43.442Z,0.73
2022-10-25T01:04:56.445Z,1.15
2022-10-25T01:08:04.274Z,1.23
2022-10-25T01:14:29.361Z,1.40
2022-10-25T01:17:44.169Z,0.80
2022-10-25T01:25:15.549Z,0.85
2022-10-25T01:28:29.167Z,1.45
2022-10-25T01:31:38.998Z,1.20
2022-10-25T01:34:48.072Z,1.17
2022-10-25T01:38:10.081Z,1.13
2022-10-25T01:41:22.270Z,1.20
2022-10-25T01:44:48.322Z,1.02
2022-10-25T01:47:57.756Z,0.95
2022-10-25T01:51:17.282Z,1.27
2022-10-25T01:54:31.992Z,1.20
2022-10-25T01:57:41.647Z,1.35
2022-10-25T02:00:52.570Z,0.80
2022-10-25T02:04:11.789Z,1.13
2022-10-25T02:07:24.781Z,1.13
2022-10-25T02:10:32.584Z,0.82
2022-10-25T02:13:43.669Z,1.20
2022-10-25T02:16:50.057Z,1.30
2022-10-25T02:19:57.484Z,1.05
2022-10-25T02:23:01.492Z,1.02
2022-10-25T02:26:06.955Z,1.08
2022-10-25T02:29:11.173Z,1.15
2022-10-25T02:32:16.301Z,0.85
2022-10-25T02:35:22.013Z,1.05
2022-10-25T02:38:42.356Z,1.05
2022-10-25T02:42:10.624Z,1.50
2022-10-25T02:45:18.676Z,1.17
2022-10-25T02:48:41.571Z,1.08
2022-10-25T02:52:14.600Z,1.08
2022-10-25T02:55:49.693Z,1.35
2022-10-25T02:59:05.053Z,1.05
2022-10-25T03:02:34.490Z,1.13
2022-10-25T03:05:56.777Z,1.50
2022-10-25T03:09:21.443Z,1.50
2022-10-25T03:12:27.500Z,1.40
2022-10-25T03:15:31.339Z,1.50
2022-10-25T03:18:34.003Z,1.70
2022-10-25T03:21:38.769Z,1.60
2022-10-25T03:24:45.203Z,1.77
2022-10-25T03:27:48.152Z,1.35
2022-10-25T03:30:51.089Z,1.50
2022-10-25T03:33:53.749Z,1.90
2022-10-25T03:36:57.651Z,1.90
2022-10-25T03:40:01.722Z,1.83
2022-10-25T03:43:04.311Z,1.65
2022-10-25T03:46:06.942Z,1.90
2022-10-25T03:49:09.584Z,1.95
2022-10-25T03:52:12.349Z,2.13
2022-10-25T03:55:16.220Z,1.70
2022-10-25T03:58:19.682Z,2.03
2022-10-25T04:01:22.375Z,2.17
2022-10-25T04:04:25.097Z,2.05
2022-10-25T04:07:28.351Z,2.05
2022-10-25T04:10:32.215Z,2.08
2022-10-25T04:13:34.710Z,2.30
2022-10-25T04:16:37.294Z,2.13
2022-10-25T04:19:39.831Z,1.95
2022-10-25T04:22:42.295Z,2.60
2022-10-25T04:25:46.256Z,2.75
2022-10-25T04:28:50.433Z,1.73
2022-10-25T04:31:52.854Z,2.20
2022-10-25T04:34:55.564Z,2.45
2022-10-25T04:37:58.336Z,2.30
2022-10-25T04:41:02.501Z,2.42
2022-10-25T04:44:06.982Z,2.13
2022-10-25T04:47:09.634Z,1.92
2022-10-25T04:50:12.246Z,2.60
2022-10-25T04:53:14.855Z,2.10
2022-10-25T04:56:18.854Z,2.20
2022-10-25T04:59:21.368Z,2.20
2022-10-25T05:02:24.848Z,1.98
2022-10-25T05:05:27.774Z,2.78
2022-10-25T05:08:30.400Z,2.50
2022-10-25T05:11:34.408Z,1.83
2022-10-25T05:14:36.885Z,2.33
2022-10-25T05:17:39.448Z,2.63
2022-10-25T05:20:41.967Z,2.03
2022-10-25T05:23:44.685Z,2.22
2022-10-25T05:26:48.662Z,1.95
2022-10-25T05:29:51.324Z,2.50
2022-10-25T05:32:54.142Z,3.38
2022-10-25T05:35:56.700Z,2.67
2022-10-25T05:38:59.607Z,2.35
2022-10-25T05:42:06.213Z,2.35
2022-10-25T05:45:09.256Z,2.10
2022-10-25T05:48:11.947Z,2.65
2022-10-25T05:51:33.422Z,2.20
2022-10-25T05:54:36.708Z,2.45
2022-10-25T05:57:40.641Z,3.30
2022-10-25T06:00:43.309Z,3.22
2022-10-25T06:03:48.691Z,2.83
2022-10-25T06:06:52.119Z,2.88
2022-10-25T06:09:55.403Z,3.13
2022-10-25T06:12:59.615Z,2.83
2022-10-25T06:16:04.722Z,3.85
2022-10-25T06:19:07.971Z,3.67
2022-10-25T06:22:11.936Z,2.95
2022-10-25T06:25:14.610Z,2.72
2022-10-25T06:28:19.433Z,2.72
2022-10-25T06:31:22.120Z,2.20
2022-10-25T06:34:24.905Z,2.30
2022-10-25T06:37:27.677Z,2.53
2022-10-25T06:40:30.388Z,2.60
2022-10-25T06:43:35.761Z,2.55
2022-10-25T06:47:11.583Z,3.08
2022-10-25T06:50:03.521Z,2.55
2022-10-25T06:53:08.332Z,2.85
2022-10-25T06:56:15.313Z,2.22
2022-10-25T07:02:57.941Z,2.65
2022-10-25T07:06:02.098Z,2.53
2022-10-25T07:09:06.992Z,2.90
2022-10-25T07:12:16.431Z,2.95
2022-10-25T07:15:25.532Z,2.60
2022-10-25T07:18:30.352Z,2.10
2022-10-25T07:21:34.766Z,2.53
2022-10-25T07:24:44.082Z,2.80
2022-10-25T07:28:07.791Z,2.78
2022-10-25T07:31:17.130Z,2.60
2022-10-25T07:34:29.580Z,2.40
2022-10-25T07:37:52.775Z,2.33
2022-10-25T07:41:10.767Z,2.72
2022-10-25T07:44:17.416Z,2.47
2022-10-25T07:47:42.060Z,2.70
2022-10-25T07:55:40.600Z,2.58
2022-10-25T07:59:26.013Z,2.60
2022-10-25T08:02:47.345Z,2.75
2022-10-25T08:06:41.452Z,2.30
2022-10-25T08:10:14.224Z,2.58
2022-10-25T08:17:42.019Z,3.28
2022-10-25T08:21:01.793Z,2.38
2022-10-25T08:24:09.988Z,2.63
2022-10-25T08:27:23.896Z,2.38
2022-10-25T08:30:36.173Z,2.28
2022-10-25T08:33:42.663Z,2.50
2022-10-25T08:41:54.543Z,2.60
2022-10-25T08:45:01.011Z,3.05
2022-10-25T08:48:14.249Z,3.30
2022-10-25T08:51:37.350Z,3.17
2022-10-25T08:54:48.324Z,2.65
2022-10-25T08:57:55.534Z,3.58
2022-10-25T09:01:01.189Z,3.55
2022-10-25T09:04:06.619Z,3.10
2022-10-25T09:07:17.736Z,3.35
2022-10-25T09:10:36.096Z,3.08
2022-10-25T09:13:44.498Z,2.95
2022-10-25T09:17:29.270Z,3.72
2022-10-25T09:20:36.611Z,2.80
2022-10-25T09:23:49.347Z,3.30
2022-10-25T09:27:12.103Z,2.90
2022-10-25T09:30:25.304Z,2.72
2022-10-25T09:33:30.659Z,2.70
2022-10-25T09:36:41.178Z,2.70
2022-10-25T09:39:50.730Z,2.08
2022-10-25T09:43:12.137Z,2.30
2022-10-25T09:46:19.951Z,2.50
2022-10-25T09:53:58.461Z,2.13
2022-10-25T09:57:11.618Z,2.30
2022-10-25T10:00:20.962Z,2.17
2022-10-25T10:04:10.250Z,2.05
2022-10-25T10:07:17.116Z,2.15
2022-10-25T10:10:22.922Z,2.05
2022-10-25T10:13:40.620Z,2.05
2022-10-25T10:17:08.533Z,2.53
2022-10-25T10:20:23.911Z,2.22
2022-10-25T10:23:56.713Z,2.00
2022-10-25T10:27:04.360Z,2.20
2022-10-25T10:30:24.595Z,2.13
2022-10-25T10:33:33.437Z,1.50
2022-10-25T10:36:50.633Z,1.98
2022-10-25T10:40:00.272Z,1.92
2022-10-25T10:43:26.365Z,2.08
2022-10-25T10:46:42.505Z,1.95
2022-10-25T10:50:44.937Z,2.08
2022-10-25T10:53:57.660Z,2.05
2022-10-25T10:57:06.441Z,1.77
2022-10-25T11:00:22.023Z,2.63
2022-10-25T11:04:00.048Z,1.95
2022-10-25T11:07:19.656Z,1.88
2022-10-25T11:10:25.845Z,1.90
2022-10-25T11:13:32.751Z,1.50
2022-10-25T11:16:54.496Z,1.90
2022-10-25T11:20:14.445Z,1.70
2022-10-25T11:23:27.566Z,1.88
2022-10-25T11:26:35.425Z,1.67
2022-10-25T11:29:56.780Z,2.17
2022-10-25T11:33:18.695Z,1.70
2022-10-25T11:36:36.426Z,1.45
2022-10-25T11:39:48.891Z,1.77
2022-10-25T11:43:04.378Z,2.58
2022-10-25T11:46:13.216Z,1.98
2022-10-25T11:49:28.500Z,1.60
2022-10-25T11:52:56.838Z,1.50
2022-10-25T11:56:10.487Z,1.58
2022-10-25T11:59:20.817Z,1.23
2022-10-25T12:02:44.271Z,1.60
2022-10-25T12:06:00.483Z,1.42
2022-10-25T12:09:09.238Z,1.20
2022-10-25T12:12:20.657Z,1.50
2022-10-25T12:15:36.134Z,1.40
2022-10-25T12:18:45.425Z,0.95
2022-10-25T12:21:55.708Z,1.13
2022-10-25T12:25:08.659Z,1.35
2022-10-25T12:28:25.013Z,1.50
2022-10-25T12:31:37.189Z,1.20
2022-10-25T12:34:56.952Z,0.98
2022-10-25T12:38:03.211Z,1.25
2022-10-25T12:41:09.987Z,1.35
2022-10-25T12:44:33.267Z,1.00
2022-10-25T12:47:43.939Z,1.30
2022-10-25T12:50:54.924Z,0.90
2022-10-25T12:54:12.669Z,1.17
2022-10-25T12:57:19.916Z,1.23
2022-10-25T13:00:24.730Z,1.20
2022-10-25T13:03:37.995Z,1.20
2022-10-25T13:06:44.305Z,1.30
2022-10-25T13:09:48.751Z,1.25
2022-10-25T13:13:02.530Z,1.27
2022-10-25T13:16:08.154Z,1.42
2022-10-25T13:19:49.375Z,1.20
2022-10-25T13:22:49.059Z,1.40
2022-10-25T13:26:12.401Z,1.25
2022-10-25T13:29:42.186Z,1.00
2022-10-25T13:33:13.941Z,1.05
2022-10-25T13:36:41.642Z,1.35
2022-10-25T13:39:45.604Z,1.33
2022-10-25T13:42:49.983Z,1.10
2022-10-25T13:45:55.328Z,1.00
2022-10-25T13:48:58.263Z,1.15
2022-10-25T13:52:07.950Z,1.30
2022-10-25T13:55:15.602Z,1.10
2022-10-25T14:02:17.529Z,0.90
2022-10-25T14:06:06.583Z,1.30
2022-10-25T14:09:24.235Z,1.10
2022-10-25T14:12:29.047Z,1.00
2022-10-25T14:15:45.493Z,0.90
2022-10-25T14:18:50.587Z,1.02
2022-10-25T14:21:57.390Z,1.10
2022-10-25T14:25:03.255Z,1.40
2022-10-25T14:28:13.373Z,1.10
2022-10-25T14:31:17.933Z,0.93
2022-10-25T14:34:21.624Z,1.20
2022-10-25T14:37:24.251Z,1.25
2022-10-25T14:40:30.712Z,1.27
2022-10-25T14:43:34.220Z,1.10
2022-10-25T14:46:44.835Z,1.45
2022-10-25T14:49:47.325Z,1.45
2022-10-25T14:52:50.724Z,1.30
2022-10-25T14:55:55.963Z,1.20
2022-10-25T14:58:58.939Z,1.20
2022-10-25T15:02:03.109Z,1.10
2022-10-25T15:05:06.069Z,1.17
2022-10-25T15:08:17.983Z,1.08
2022-10-25T15:11:21.913Z,1.55
2022-10-25T15:14:24.741Z,1.58
2022-10-25T15:17:28.502Z,1.63
2022-10-25T15:20:31.911Z,1.42
2022-10-25T15:23:35.082Z,1.95
2022-10-25T15:26:39.162Z,1.60
2022-10-25T15:32:54.198Z,1.52
2022-10-25T15:35:57.967Z,1.85
2022-10-25T15:39:12.934Z,1.48
2022-10-25T15:42:31.681Z,1.67
2022-10-25T15:45:34.265Z,1.38
2022-10-25T15:48:47.423Z,1.40
2022-10-25T15:52:16.381Z,1.15
2022-10-25T15:55:20.313Z,0.88
2022-10-25T15:58:24.193Z,1.13
2022-10-25T16:01:26.712Z,1.00
2022-10-25T16:04:29.464Z,0.80
2022-10-25T16:08:00.887Z,0.95
2022-10-25T16:11:32.059Z,1.08
2022-10-25T16:14:37.120Z,0.80
2022-10-25T16:17:41.291Z,1.00
2022-10-25T16:20:49.029Z,0.80
2022-10-25T16:23:54.911Z,0.77
2022-10-25T16:27:01.258Z,1.30
2022-10-25T16:30:05.915Z,1.08
2022-10-25T16:33:34.017Z,0.90
2022-10-25T16:36:36.596Z,2.20
2022-10-25T16:39:42.127Z,1.70
2022-10-25T16:42:45.037Z,2.78
2022-10-25T16:47:00.112Z,2.20
2022-10-25T16:50:22.809Z,1.63
2022-10-25T16:53:32.680Z,1.65
2022-10-25T16:56:35.935Z,1.52
2022-10-25T16:59:39.342Z,1.70
2022-10-25T17:02:42.774Z,1.80
2022-10-25T17:05:52.242Z,1.17
2022-10-25T17:08:54.651Z,1.80
2022-10-25T17:12:03.101Z,1.50
2022-10-25T17:15:07.994Z,1.88
2022-10-25T17:18:15.260Z,1.52
2022-10-25T17:21:20.031Z,1.77
2022-10-25T17:24:23.744Z,2.00
2022-10-25T17:27:26.359Z,1.80
2022-10-25T17:30:29.034Z,1.63
2022-10-25T17:33:32.531Z,2.00
2022-10-25T17:36:38.418Z,2.05
2022-10-25T17:39:41.242Z,1.80
2022-10-25T17:42:43.813Z,1.83
2022-10-25T17:45:46.859Z,1.98
2022-10-25T17:48:49.678Z,2.20
2022-10-25T17:51:53.921Z,1.90
2022-10-25T17:54:57.812Z,2.53
2022-10-25T17:58:00.507Z,2.17
2022-10-25T18:01:05.446Z,2.38
2022-10-25T18:04:08.724Z,2.05
2022-10-25T18:07:13.804Z,2.47
2022-10-25T18:10:16.600Z,2.10
2022-10-25T18:13:21.511Z,1.98
2022-10-25T18:16:26.863Z,2.33
2022-10-25T18:19:29.421Z,2.35
2022-10-25T18:22:33.531Z,2.13
2022-10-25T18:25:36.198Z,2.28
2022-10-25T18:28:41.255Z,2.67
2022-10-25T18:31:44.089Z,2.90
2022-10-25T18:34:47.579Z,2.58
2022-10-25T18:37:51.865Z,2.30
2022-10-25T18:40:54.817Z,3.33
2022-10-25T18:43:57.673Z,2.47
2022-10-25T18:47:00.270Z,2.20
2022-10-25T18:50:02.932Z,2.33
2022-10-25T18:53:07.049Z,2.45
2022-10-25T18:56:10.264Z,2.53
2022-10-25T18:59:13.159Z,2.53
2022-10-25T19:02:16.079Z,2.58
2022-10-25T19:05:19.134Z,2.17
2022-10-25T19:08:23.124Z,2.65
2022-10-25T19:11:25.789Z,2.70
2022-10-25T19:14:28.496Z,2.22
2022-10-25T19:17:31.556Z,2.20
2022-10-25T19:20:34.166Z,2.20
2022-10-25T19:23:39.185Z,2.15
2022-10-25T19:26:42.211Z,2.22
2022-10-25T19:29:44.917Z,2.75
2022-10-25T19:32:47.679Z,2.17
2022-10-25T19:35:50.434Z,2.85
2022-10-25T19:38:54.368Z,2.80
2022-10-25T19:41:57.043Z,2.72
2022-10-25T19:48:04.745Z,2.35
2022-10-25T19:51:08.677Z,2.35
2022-10-25T19:54:12.833Z,2.38
2022-10-25T19:57:15.562Z,2.40
2022-10-25T20:00:18.357Z,2.85
2022-10-25T20:03:21.383Z,2.58
2022-10-25T20:06:24.938Z,2.80
2022-10-25T20:09:29.461Z,2.80
2022-10-25T20:12:32.798Z,2.42
2022-10-25T20:15:35.478Z,3.03
2022-10-25T20:18:40.038Z,3.15
2022-10-25T20:21:42.649Z,3.00
2022-10-25T20:24:46.653Z,2.65
2022-10-25T20:27:50.136Z,2.78
2022-10-25T20:30:53.216Z,2.85
2022-10-25T20:33:56.243Z,2.70
2022-10-25T20:36:59.045Z,2.85
2022-10-25T20:40:04.021Z,2.92
2022-10-25T20:43:07.008Z,2.53
2022-10-25T20:46:09.941Z,2.60
2022-10-25T20:49:12.580Z,2.40
2022-10-25T20:52:15.176Z,2.97
2022-10-25T20:55:20.989Z,5.30
2022-10-25T20:58:23.980Z,7.75
2022-10-25T21:01:27.273Z,5.78
2022-10-25T21:04:42.494Z,5.35
2022-10-25T21:07:52.738Z,4.15
2022-10-25T21:10:57.466Z,4.10
2022-10-25T21:14:00.160Z,3.72
2022-10-25T21:17:02.830Z,3.33
2022-10-25T21:20:06.012Z,3.50
2022-10-25T21:23:08.680Z,3.22
2022-10-25T21:27:00.887Z,2.92
2022-10-25T21:30:03.768Z,2.92
2022-10-25T21:33:09.336Z,3.20
2022-10-25T21:36:13.380Z,3.00
2022-10-25T21:39:20.560Z,2.80
2022-10-25T21:42:24.746Z,2.45
2022-10-25T21:45:27.568Z,2.63
2022-10-25T21:48:30.175Z,2.13
2022-10-25T21:51:35.709Z,2.50
2022-10-25T21:54:38.391Z,2.30
2022-10-25T21:57:42.529Z,2.60
2022-10-25T22:00:45.396Z,2.50
2022-10-25T22:03:48.286Z,2.65
2022-10-25T22:06:51.102Z,2.53
2022-10-25T22:09:53.836Z,2.55
2022-10-25T22:12:58.601Z,2.33
2022-10-25T22:16:02.206Z,2.22
2022-10-25T22:19:06.014Z,2.00
2022-10-25T22:22:09.238Z,2.40
2022-10-25T22:25:15.488Z,2.00
2022-10-25T22:28:19.699Z,2.40
2022-10-25T22:31:22.881Z,3.00
2022-10-25T22:34:25.687Z,2.20
2022-10-25T22:37:28.324Z,2.55
2022-10-25T22:40:31.254Z,1.88
2022-10-25T22:43:36.218Z,1.98
2022-10-25T22:46:39.601Z,2.55
2022-10-25T22:49:42.305Z,2.65
2022-10-25T22:55:56.710Z,2.03
2022-10-25T22:59:01.749Z,3.03
2022-10-25T23:02:04.405Z,2.40
2022-10-25T23:05:07.526Z,2.42
2022-10-25T23:08:10.317Z,1.95
2022-10-25T23:11:14.557Z,2.22
2022-10-25T23:14:18.772Z,2.60
2022-10-25T23:17:21.653Z,2.35
2022-10-25T23:20:24.407Z,2.10
2022-10-25T23:23:28.000Z,2.22
2022-10-25T23:26:31.836Z,2.38
2022-10-25T23:29:35.980Z,2.10
2022-10-25T23:32:38.766Z,2.55
2022-10-25T23:35:42.383Z,2.22
2022-10-25T23:38:45.336Z,2.72
2022-10-25T23:41:51.810Z,2.63
2022-10-25T23:44:56.002Z,2.03
2022-10-25T23:48:00.989Z,2.03
2022-10-25T23:51:04.936Z,2.70
2022-10-25T23:54:09.528Z,2.22
2022-10-25T23:57:17.457Z,2.30
